DAAGDAUI

Guest
Details From DAAG - Alger Houari Boumediene
To DAUI - IN SALAH
Flight Number -
Tags generated
Created
Modified
Stats Distance 601 nm / 1,113 km
Max Altitude 34,000 ft / 10,363 m
Waypoints 7
Social Downloads 1
Likes 0
Share VATSIM

Download

Looking for another format? Having issues loading an existing format? Contact us
Advertisement - Login to hide

Notes

Basic altitude profile: - Ascent Rate: 2500ft/min - Ascent Speed: 250kts - Cruise Altitude: 35000ft - Cruise Speed: 420kts - Descent Rate: 1500ft/min - Descent Speed: 250kts Options: - Use NATs: yes - Use PACOTS: yes - Use low airways: yes - Use high airways: yes

Route

DAAG BSA UB726 KSOUR DAUI

ID Type Via Altitude Latitude Longitude Leg Dist Tot Dist Heading (true) Name
O DAAG APT - 0 ft / 0 m 36.69752˚ 3.21308˚ - 0 nm - Alger Houari Boumediene
BSA VOR - 31,600 ft / 9,632 m 35.51528˚ 4.40167˚ 91 nm 91 nm 141° / 141° BOU SAADA VOR-DME
KAHIL FIX UB726 (AWY-HI) 34,000 ft / 10,363 m 34.08333˚ 4.11667˚ 87 nm 178 nm 189° / 189° -
GHA VOR UB726 (AWY-HI) 34,000 ft / 10,363 m 32.39333˚ 3.77778˚ 102 nm 281 nm 190° / 189° GHARDAIA VOR-DME
MNA VOR UB726 (AWY-HI) 34,000 ft / 10,363 m 30.55861˚ 2.86167˚ 119 nm 401 nm 203° / 203° EL GOLEA VOR-DME
KSOUR FIX UB726 (AWY-HI) 24,500 ft / 7,468 m 28.50000˚ 2.63333˚ 124 nm 525 nm 186° / 185° -
O DAUI APT - 0 ft / 0 m 27.25102˚ 2.51202˚ 75 nm 600 nm 185° / 185° IN SALAH

Altitude Profile

Advertisement - Login to hide

Weather


0- 5 10 15 20 25 30 35+ Temperature / ° C

Clouds and Precipitation
Forecast for 2017-12-13 06:00 UTC. Updated 2 hours ago

Ground ~20,000 ft ~40,000 ft Winds

DAAG

Details ICAO DAAG (ALG)
Name Alger Houari Boumediene
Region Algeria
Timezone Africa/Algiers (UTC+1.0)
Stats Elevation 82 ft / 25 m (AMSL)
Location 36.697521° 3.213079°
Runways 2
Magnetic Variation 1.057° E

METAR

DAAG 130500Z 19003KT 9999 FEW016 FEW020TCU 11/10 Q1026

Decode

TAF

TAF DAAG 122300Z 1300/1324 28010KT 9999 FEW020 SCT040 BKN100 PROB40 TEMPO 1300/1307 5000 -RA FEW023CB

Decode

Departure Runways

ID Width Length Bearing (true) Bearing (mag) Surface Threshold Offset Overrun Length
05 197 ft / 60 m 11,459 ft / 3,493 m 52.87° 51.81° Asphalt 0 ft / 0 m 0 ft / 0 m
09 148 ft / 45 m 11,442 ft / 3,487 m 91.75° 90.69° Asphalt 0 ft / 0 m 1,017 ft / 310 m
23 197 ft / 60 m 11,459 ft / 3,493 m 232.89° 231.83° Asphalt 0 ft / 0 m 0 ft / 0 m
27 148 ft / 45 m 11,442 ft / 3,487 m 271.78° 270.72° Asphalt 0 ft / 0 m 0 ft / 0 m

DAUI

Details ICAO DAUI (INZ)
Name IN SALAH
Region Algeria
Timezone Africa/Algiers (UTC+1.0)
Stats Elevation 896 ft / 273 m (AMSL)
Location 27.251021° 2.512018°
Runways 1
Magnetic Variation 0.441° E

METAR

Not found

TAF

TAF DAUI 122300Z 1300/1324 08010KT CAVOK

Decode

Destination Runways

ID Width Length Bearing (true) Bearing (mag) Surface Threshold Offset Overrun Length
05 148 ft / 45 m 9,827 ft / 2,995 m 50.81° 50.37° Asphalt 0 ft / 0 m 150 ft / 46 m
23 148 ft / 45 m 9,827 ft / 2,995 m 230.82° 230.38° Asphalt 0 ft / 0 m 150 ft / 46 m